createdAt,value
2022-11-26T00:00:28.000Z,1028.49
2022-11-26T00:01:13.000Z,1028.43
2022-11-26T00:02:17.000Z,1028.48
2022-11-26T00:03:12.000Z,1028.47
2022-11-26T00:04:10.000Z,1028.49
2022-11-26T00:05:12.000Z,1028.50
2022-11-26T00:06:30.000Z,1028.49
2022-11-26T00:07:11.000Z,1028.57
2022-11-26T00:08:32.000Z,1028.57
2022-11-26T00:09:14.000Z,1028.60
2022-11-26T00:10:16.000Z,1028.66
2022-11-26T00:11:13.000Z,1028.63
2022-11-26T00:12:34.000Z,1028.65
2022-11-26T00:13:16.000Z,1028.68
2022-11-26T00:14:14.000Z,1028.66
2022-11-26T00:15:19.000Z,1028.67
2022-11-26T00:16:12.000Z,1028.69
2022-11-26T00:17:11.000Z,1028.69
2022-11-26T00:18:11.000Z,1028.71
2022-11-26T00:19:10.000Z,1028.74
2022-11-26T00:20:11.000Z,1028.75
2022-11-26T00:21:18.000Z,1028.77
2022-11-26T00:22:20.000Z,1028.79
2022-11-26T00:23:18.000Z,1028.77
2022-11-26T00:24:24.000Z,1028.79
2022-11-26T00:25:16.000Z,1028.78
2022-11-26T00:26:15.000Z,1028.82
2022-11-26T00:27:10.000Z,1028.84
2022-11-26T00:28:32.000Z,1028.84
2022-11-26T00:29:10.000Z,1028.86
2022-11-26T00:30:15.000Z,1028.90
2022-11-26T00:31:13.000Z,1028.91
2022-11-26T00:32:19.000Z,1028.91
2022-11-26T00:33:10.000Z,1028.93
2022-11-26T00:34:10.000Z,1028.95
2022-11-26T00:35:11.000Z,1028.98
2022-11-26T00:36:18.000Z,1028.97
2022-11-26T00:37:19.000Z,1029.00
2022-11-26T00:38:17.000Z,1028.96
2022-11-26T00:39:20.000Z,1029.01
2022-11-26T00:40:18.000Z,1029.00
2022-11-26T00:41:16.000Z,1029.00
2022-11-26T00:42:11.000Z,1028.99
2022-11-26T00:43:13.000Z,1028.96
2022-11-26T00:44:20.000Z,1029.02
2022-11-26T00:45:26.000Z,1029.02
2022-11-26T00:46:16.000Z,1029.07
2022-11-26T00:47:11.000Z,1029.10
2022-11-26T00:48:11.000Z,1029.09
2022-11-26T00:49:11.000Z,1029.13
2022-11-26T00:50:20.000Z,1029.15
2022-11-26T00:51:15.000Z,1029.17
2022-11-26T00:52:25.000Z,1029.19
2022-11-26T00:53:13.000Z,1029.16
2022-11-26T00:54:16.000Z,1029.19
2022-11-26T00:55:21.000Z,1029.21
2022-11-26T00:56:16.000Z,1029.27
2022-11-26T00:57:11.000Z,1029.25
2022-11-26T00:58:21.000Z,1029.30
2022-11-26T00:59:13.000Z,1029.31
2022-11-26T01:00:20.000Z,1029.31
2022-11-26T01:01:15.000Z,1029.32
2022-11-26T01:02:10.000Z,1029.35
2022-11-26T01:03:10.000Z,1029.38
2022-11-26T01:04:10.000Z,1029.41
2022-11-26T01:05:11.000Z,1029.39
2022-11-26T01:06:30.000Z,1029.43
2022-11-26T01:07:11.000Z,1029.39
2022-11-26T01:08:21.000Z,1029.40
2022-11-26T01:09:17.000Z,1029.46
2022-11-26T01:10:24.000Z,1029.45
2022-11-26T01:11:14.000Z,1029.48
2022-11-26T01:12:13.000Z,1029.48
2022-11-26T01:13:11.000Z,1029.51
2022-11-26T01:14:16.000Z,1029.49
2022-11-26T01:15:12.000Z,1029.55
2022-11-26T01:16:25.000Z,1029.56
2022-11-26T01:17:11.000Z,1029.58
2022-11-26T01:18:13.000Z,1029.57
2022-11-26T01:19:13.000Z,1029.59
2022-11-26T01:20:23.000Z,1029.57
2022-11-26T01:21:11.000Z,1029.59
2022-11-26T01:22:20.000Z,1029.63
2022-11-26T01:23:14.000Z,1029.64
2022-11-26T01:24:10.000Z,1029.62
2022-11-26T01:25:10.000Z,1029.64
2022-11-26T01:26:18.000Z,1029.71
2022-11-26T01:27:11.000Z,1029.74
2022-11-26T01:28:13.000Z,1029.73
2022-11-26T01:29:17.000Z,1029.73
2022-11-26T01:30:30.000Z,1029.71
2022-11-26T01:31:17.000Z,1029.72
2022-11-26T01:32:10.000Z,1029.74
2022-11-26T01:33:10.000Z,1029.75
2022-11-26T01:34:10.000Z,1029.71
2022-11-26T01:35:10.000Z,1029.80
2022-11-26T01:36:17.000Z,1029.78
2022-11-26T01:37:12.000Z,1029.74
2022-11-26T01:38:14.000Z,1029.78
2022-11-26T01:39:17.000Z,1029.75
2022-11-26T01:40:20.000Z,1029.71
2022-11-26T01:41:23.000Z,1029.76
2022-11-26T01:42:22.000Z,1029.77
2022-11-26T01:43:25.000Z,1029.80
2022-11-26T01:44:19.000Z,1029.82
2022-11-26T01:45:17.000Z,1029.84
2022-11-26T01:46:15.000Z,1029.87
2022-11-26T01:47:20.000Z,1029.90
2022-11-26T01:48:20.000Z,1029.91
2022-11-26T01:49:22.000Z,1029.93
2022-11-26T01:50:20.000Z,1029.91
2022-11-26T01:51:10.000Z,1029.92
2022-11-26T01:52:19.000Z,1029.98
2022-11-26T01:53:25.000Z,1030.00
2022-11-26T01:54:11.000Z,1030.01
2022-11-26T01:55:14.000Z,1030.02
2022-11-26T01:56:18.000Z,1029.98
2022-11-26T01:57:28.000Z,1030.03
2022-11-26T01:58:16.000Z,1030.02
2022-11-26T01:59:27.000Z,1030.03
2022-11-26T02:00:11.000Z,1030.03
2022-11-26T02:01:10.000Z,1030.03
2022-11-26T02:02:10.000Z,1030.05
2022-11-26T02:03:11.000Z,1029.99
2022-11-26T02:04:17.000Z,1030.01
2022-11-26T02:05:23.000Z,1030.03
2022-11-26T02:06:17.000Z,1030.04
2022-11-26T02:07:11.000Z,1030.04
2022-11-26T02:08:11.000Z,1030.07
2022-11-26T02:09:11.000Z,1030.11
2022-11-26T02:10:12.000Z,1030.12
2022-11-26T02:11:20.000Z,1030.14
2022-11-26T02:12:11.000Z,1030.13
2022-11-26T02:13:11.000Z,1030.13
2022-11-26T02:14:15.000Z,1030.18
2022-11-26T02:15:11.000Z,1030.16
2022-11-26T02:16:27.000Z,1030.16
2022-11-26T02:17:33.000Z,1030.19
2022-11-26T02:18:11.000Z,1030.17
2022-11-26T02:19:34.000Z,1030.23
2022-11-26T02:20:20.000Z,1030.23
2022-11-26T02:21:19.000Z,1030.25
2022-11-26T02:22:34.000Z,1030.27
2022-11-26T02:23:32.000Z,1030.27
2022-11-26T02:24:20.000Z,1030.32
2022-11-26T02:25:41.000Z,1030.33
2022-11-26T02:26:20.000Z,1030.38
2022-11-26T02:27:31.000Z,1030.39
2022-11-26T02:28:20.000Z,1030.40
2022-11-26T02:29:31.000Z,1030.40
2022-11-26T02:30:13.000Z,1030.40
2022-11-26T02:31:28.000Z,1030.42
2022-11-26T02:32:18.000Z,1030.36
2022-11-26T02:33:22.000Z,1030.39
2022-11-26T02:34:32.000Z,1030.40
2022-11-26T02:35:17.000Z,1030.39
2022-11-26T02:36:20.000Z,1030.38
2022-11-26T02:37:23.000Z,1030.41
2022-11-26T02:38:18.000Z,1030.41
2022-11-26T02:39:15.000Z,1030.44
2022-11-26T02:40:10.000Z,1030.45
2022-11-26T02:41:10.000Z,1030.45
2022-11-26T02:42:20.000Z,1030.49
2022-11-26T02:43:13.000Z,1030.50
2022-11-26T02:44:12.000Z,1030.49
2022-11-26T02:45:14.000Z,1030.49
2022-11-26T02:46:16.000Z,1030.48
2022-11-26T02:47:13.000Z,1030.55
2022-11-26T02:48:17.000Z,1030.55
2022-11-26T02:49:13.000Z,1030.56
2022-11-26T02:50:17.000Z,1030.59
2022-11-26T02:51:20.000Z,1030.61
2022-11-26T02:52:13.000Z,1030.59
2022-11-26T02:53:12.000Z,1030.60
2022-11-26T02:54:11.000Z,1030.59
2022-11-26T02:55:12.000Z,1030.64
2022-11-26T02:56:19.000Z,1030.65
2022-11-26T02:57:13.000Z,1030.63
2022-11-26T02:58:10.000Z,1030.65
2022-11-26T02:59:11.000Z,1030.64
2022-11-26T03:00:11.000Z,1030.64
2022-11-26T03:01:28.000Z,1030.63
2022-11-26T03:02:19.000Z,1030.66
2022-11-26T03:03:18.000Z,1030.65
2022-11-26T03:04:17.000Z,1030.66
2022-11-26T03:05:14.000Z,1030.62
2022-11-26T03:06:12.000Z,1030.67
2022-11-26T03:07:12.000Z,1030.62
2022-11-26T03:08:10.000Z,1030.68
2022-11-26T03:09:10.000Z,1030.68
2022-11-26T03:10:10.000Z,1030.72
2022-11-26T03:11:10.000Z,1030.73
2022-11-26T03:12:10.000Z,1030.77
2022-11-26T03:13:10.000Z,1030.77
2022-11-26T03:14:10.000Z,1030.79
2022-11-26T03:15:10.000Z,1030.78
2022-11-26T03:16:10.000Z,1030.79
2022-11-26T03:17:11.000Z,1030.83
2022-11-26T03:18:10.000Z,1030.80
2022-11-26T03:19:10.000Z,1030.81
2022-11-26T03:20:10.000Z,1030.82
2022-11-26T03:21:10.000Z,1030.82
2022-11-26T03:22:12.000Z,1030.80
2022-11-26T03:23:10.000Z,1030.80
2022-11-26T03:24:10.000Z,1030.81
2022-11-26T03:25:10.000Z,1030.82
2022-11-26T03:26:10.000Z,1030.81
2022-11-26T03:27:10.000Z,1030.83
2022-11-26T03:28:10.000Z,1030.87
2022-11-26T03:29:10.000Z,1030.86
2022-11-26T03:30:11.000Z,1030.90
2022-11-26T03:31:10.000Z,1030.92
2022-11-26T03:32:10.000Z,1030.91
2022-11-26T03:33:10.000Z,1030.91
2022-11-26T03:34:10.000Z,1030.88
2022-11-26T03:35:11.000Z,1030.91
2022-11-26T03:36:11.000Z,1030.91
2022-11-26T03:37:11.000Z,1030.94
2022-11-26T03:38:10.000Z,1030.93
2022-11-26T03:39:11.000Z,1030.93
2022-11-26T03:40:11.000Z,1030.87
2022-11-26T03:41:11.000Z,1030.87
2022-11-26T03:42:11.000Z,1030.88
2022-11-26T03:43:10.000Z,1030.84
2022-11-26T03:44:11.000Z,1030.88
2022-11-26T03:45:12.000Z,1030.86
2022-11-26T03:46:10.000Z,1030.86
2022-11-26T03:47:10.000Z,1030.89
2022-11-26T03:48:10.000Z,1030.87
2022-11-26T03:49:11.000Z,1030.87
2022-11-26T03:50:11.000Z,1030.91
2022-11-26T03:51:10.000Z,1030.91
2022-11-26T03:52:10.000Z,1030.90
2022-11-26T03:53:11.000Z,1030.93
2022-11-26T03:54:10.000Z,1030.93
2022-11-26T03:55:11.000Z,1030.92
2022-11-26T03:56:10.000Z,1030.90
2022-11-26T03:57:11.000Z,1030.92
2022-11-26T03:58:11.000Z,1030.90
2022-11-26T03:59:11.000Z,1030.85
2022-11-26T04:00:11.000Z,1030.83
2022-11-26T04:01:11.000Z,1030.88
2022-11-26T04:02:10.000Z,1030.82
2022-11-26T04:03:10.000Z,1030.83
2022-11-26T04:04:10.000Z,1030.82
2022-11-26T04:05:10.000Z,1030.83
2022-11-26T04:06:11.000Z,1030.80
2022-11-26T04:07:11.000Z,1030.84
2022-11-26T04:08:11.000Z,1030.81
2022-11-26T04:09:10.000Z,1030.87
2022-11-26T04:10:11.000Z,1030.87
2022-11-26T04:11:11.000Z,1030.83
2022-11-26T04:12:11.000Z,1030.85
2022-11-26T04:13:10.000Z,1030.86
2022-11-26T04:14:10.000Z,1030.85
2022-11-26T04:15:10.000Z,1030.88
2022-11-26T04:16:11.000Z,1030.89
2022-11-26T04:17:11.000Z,1030.88
2022-11-26T04:18:10.000Z,1030.90
2022-11-26T04:19:11.000Z,1030.89
2022-11-26T04:20:11.000Z,1030.86
2022-11-26T04:21:11.000Z,1030.86
2022-11-26T04:22:10.000Z,1030.85
2022-11-26T04:23:11.000Z,1030.84
2022-11-26T04:24:10.000Z,1030.80
2022-11-26T04:25:11.000Z,1030.78
2022-11-26T04:26:10.000Z,1030.79
2022-11-26T04:27:10.000Z,1030.76
2022-11-26T04:28:11.000Z,1030.77
2022-11-26T04:29:10.000Z,1030.76
2022-11-26T04:30:12.000Z,1030.78
2022-11-26T04:31:11.000Z,1030.71
2022-11-26T04:32:11.000Z,1030.72
2022-11-26T04:33:11.000Z,1030.73
2022-11-26T04:34:10.000Z,1030.75
2022-11-26T04:35:11.000Z,1030.75
2022-11-26T04:36:10.000Z,1030.80
2022-11-26T04:37:09.000Z,1030.77
2022-11-26T04:38:09.000Z,1030.75
2022-11-26T04:39:10.000Z,1030.77
2022-11-26T04:40:10.000Z,1030.76
2022-11-26T04:41:10.000Z,1030.76
2022-11-26T04:42:10.000Z,1030.82
2022-11-26T04:43:09.000Z,1030.79
2022-11-26T04:44:10.000Z,1030.82
2022-11-26T04:45:09.000Z,1030.81
2022-11-26T04:46:09.000Z,1030.84
2022-11-26T04:47:10.000Z,1030.86
2022-11-26T04:48:10.000Z,1030.86
2022-11-26T04:49:10.000Z,1030.87
2022-11-26T04:50:10.000Z,1030.91
2022-11-26T04:51:09.000Z,1030.92
2022-11-26T04:52:10.000Z,1030.94
2022-11-26T04:53:10.000Z,1030.97
2022-11-26T04:54:09.000Z,1030.94
2022-11-26T04:55:09.000Z,1030.90
2022-11-26T04:56:09.000Z,1030.90
2022-11-26T04:57:09.000Z,1030.92
2022-11-26T04:58:09.000Z,1030.93
2022-11-26T04:59:10.000Z,1030.96
2022-11-26T05:00:10.000Z,1030.97
2022-11-26T05:01:10.000Z,1031.05
2022-11-26T05:02:09.000Z,1031.04
2022-11-26T05:03:10.000Z,1031.06
2022-11-26T05:04:09.000Z,1031.13
2022-11-26T05:05:10.000Z,1031.12
2022-11-26T05:06:10.000Z,1031.16
2022-11-26T05:07:10.000Z,1031.15
2022-11-26T05:08:10.000Z,1031.12
2022-11-26T05:09:10.000Z,1031.19
2022-11-26T05:10:11.000Z,1031.20
2022-11-26T05:11:10.000Z,1031.20
2022-11-26T05:12:11.000Z,1031.21
2022-11-26T05:13:10.000Z,1031.22
2022-11-26T05:14:10.000Z,1031.24
2022-11-26T05:15:10.000Z,1031.30
2022-11-26T05:16:10.000Z,1031.28
2022-11-26T05:17:10.000Z,1031.31
2022-11-26T05:18:10.000Z,1031.26
2022-11-26T05:19:10.000Z,1031.32
2022-11-26T05:20:11.000Z,1031.30
2022-11-26T05:21:10.000Z,1031.31
2022-11-26T05:22:10.000Z,1031.32
2022-11-26T05:23:10.000Z,1031.31
2022-11-26T05:24:10.000Z,1031.31
2022-11-26T05:25:10.000Z,1031.33
2022-11-26T05:26:10.000Z,1031.31
2022-11-26T05:27:10.000Z,1031.30
2022-11-26T05:28:10.000Z,1031.29
2022-11-26T05:29:11.000Z,1031.32
2022-11-26T05:30:11.000Z,1031.34
2022-11-26T05:31:10.000Z,1031.37
2022-11-26T05:32:10.000Z,1031.38
2022-11-26T05:33:10.000Z,1031.42
2022-11-26T05:34:10.000Z,1031.45
2022-11-26T05:35:10.000Z,1031.45
2022-11-26T05:36:10.000Z,1031.47
2022-11-26T05:37:10.000Z,1031.53
2022-11-26T05:38:09.000Z,1031.58
2022-11-26T05:39:10.000Z,1031.56
2022-11-26T05:40:10.000Z,1031.56
2022-11-26T05:41:09.000Z,1031.58
2022-11-26T05:42:09.000Z,1031.58
2022-11-26T05:43:10.000Z,1031.57
2022-11-26T05:44:10.000Z,1031.59
2022-11-26T05:45:10.000Z,1031.60
2022-11-26T05:46:13.000Z,1031.61
2022-11-26T05:47:09.000Z,1031.61
2022-11-26T05:48:10.000Z,1031.59
2022-11-26T05:49:09.000Z,1031.58
2022-11-26T05:50:10.000Z,1031.59
2022-11-26T05:51:09.000Z,1031.60
2022-11-26T05:52:09.000Z,1031.62
2022-11-26T05:53:10.000Z,1031.65
2022-11-26T05:54:11.000Z,1031.66
2022-11-26T05:55:10.000Z,1031.69
2022-11-26T05:56:10.000Z,1031.73
2022-11-26T05:57:10.000Z,1031.78
2022-11-26T05:58:09.000Z,1031.75
2022-11-26T05:59:09.000Z,1031.80
2022-11-26T06:00:10.000Z,1031.79
2022-11-26T06:01:10.000Z,1031.78
2022-11-26T06:02:09.000Z,1031.78
2022-11-26T06:03:09.000Z,1031.82
2022-11-26T06:04:09.000Z,1031.80
2022-11-26T06:05:10.000Z,1031.77
2022-11-26T06:06:10.000Z,1031.80
2022-11-26T06:07:09.000Z,1031.81
2022-11-26T06:08:09.000Z,1031.80
2022-11-26T06:09:09.000Z,1031.78
2022-11-26T06:10:10.000Z,1031.82
2022-11-26T06:11:10.000Z,1031.80
2022-11-26T06:12:09.000Z,1031.82
2022-11-26T06:13:09.000Z,1031.80
2022-11-26T06:14:09.000Z,1031.85
2022-11-26T06:15:09.000Z,1031.81
2022-11-26T06:16:09.000Z,1031.82
2022-11-26T06:17:10.000Z,1031.83
2022-11-26T06:18:09.000Z,1031.86
2022-11-26T06:19:09.000Z,1031.86
2022-11-26T06:20:10.000Z,1031.91
2022-11-26T06:21:10.000Z,1031.94
2022-11-26T06:22:10.000Z,1031.91
2022-11-26T06:23:10.000Z,1031.95
2022-11-26T06:24:09.000Z,1031.95
2022-11-26T06:25:12.000Z,1031.94
2022-11-26T06:26:10.000Z,1031.98
2022-11-26T06:27:09.000Z,1031.97
2022-11-26T06:28:09.000Z,1031.99
2022-11-26T06:29:09.000Z,1031.99
2022-11-26T06:30:10.000Z,1032.04
2022-11-26T06:31:09.000Z,1032.03
2022-11-26T06:32:09.000Z,1032.09
2022-11-26T06:33:10.000Z,1032.10
2022-11-26T06:34:09.000Z,1032.16
2022-11-26T06:35:09.000Z,1032.17
2022-11-26T06:36:09.000Z,1032.20
2022-11-26T06:37:09.000Z,1032.21
2022-11-26T06:38:10.000Z,1032.22
2022-11-26T06:39:10.000Z,1032.26
2022-11-26T06:40:15.000Z,1032.25
2022-11-26T06:41:10.000Z,1032.31
2022-11-26T06:42:10.000Z,1032.31
2022-11-26T06:43:10.000Z,1032.30
2022-11-26T06:44:10.000Z,1032.35
2022-11-26T06:45:10.000Z,1032.34
2022-11-26T06:46:10.000Z,1032.36
2022-11-26T06:47:11.000Z,1032.40
2022-11-26T06:48:10.000Z,1032.42
2022-11-26T06:49:10.000Z,1032.44
2022-11-26T06:50:10.000Z,1032.49
2022-11-26T06:51:12.000Z,1032.49
2022-11-26T06:52:11.000Z,1032.54
2022-11-26T06:53:09.000Z,1032.53
2022-11-26T06:54:10.000Z,1032.58
2022-11-26T06:55:10.000Z,1032.60
2022-11-26T06:56:11.000Z,1032.61
2022-11-26T06:57:10.000Z,1032.68
2022-11-26T06:58:10.000Z,1032.69
2022-11-26T06:59:10.000Z,1032.67
2022-11-26T07:00:10.000Z,1032.73
2022-11-26T07:01:15.000Z,1032.69
2022-11-26T07:02:10.000Z,1032.69
2022-11-26T07:03:10.000Z,1032.68
2022-11-26T07:04:10.000Z,1032.70
2022-11-26T07:05:10.000Z,1032.68
2022-11-26T07:06:18.000Z,1032.69
2022-11-26T07:07:10.000Z,1032.71
2022-11-26T07:08:09.000Z,1032.73
2022-11-26T07:09:10.000Z,1032.69
2022-11-26T07:10:10.000Z,1032.68
2022-11-26T07:11:10.000Z,1032.72
2022-11-26T07:12:10.000Z,1032.71
2022-11-26T07:13:10.000Z,1032.67
2022-11-26T07:14:09.000Z,1032.66
2022-11-26T07:15:10.000Z,1032.63
2022-11-26T07:16:10.000Z,1032.65
2022-11-26T07:17:10.000Z,1032.64
2022-11-26T07:18:10.000Z,1032.58
2022-11-26T07:19:11.000Z,1032.62
2022-11-26T07:20:11.000Z,1032.61
2022-11-26T07:21:11.000Z,1032.62
2022-11-26T07:22:10.000Z,1032.65
2022-11-26T07:23:09.000Z,1032.66
2022-11-26T07:24:10.000Z,1032.67
2022-11-26T07:25:10.000Z,1032.71
2022-11-26T07:26:11.000Z,1032.69
2022-11-26T07:27:09.000Z,1032.75
2022-11-26T07:28:10.000Z,1032.75
2022-11-26T07:29:10.000Z,1032.78
2022-11-26T07:30:10.000Z,1032.77
2022-11-26T07:31:12.000Z,1032.81
2022-11-26T07:32:10.000Z,1032.82
2022-11-26T07:33:09.000Z,1032.83
2022-11-26T07:34:10.000Z,1032.86
2022-11-26T07:35:10.000Z,1032.87
2022-11-26T07:36:17.000Z,1032.90
2022-11-26T07:37:10.000Z,1032.94
2022-11-26T07:38:10.000Z,1032.97
2022-11-26T07:39:10.000Z,1032.98
2022-11-26T07:40:11.000Z,1033.02
2022-11-26T07:41:16.000Z,1033.03
2022-11-26T07:42:10.000Z,1033.00
2022-11-26T07:43:10.000Z,1033.04
2022-11-26T07:44:12.000Z,1033.01
2022-11-26T07:45:10.000Z,1032.97
2022-11-26T07:46:14.000Z,1033.02
2022-11-26T07:47:10.000Z,1033.01
2022-11-26T07:48:10.000Z,1033.02
2022-11-26T07:49:10.000Z,1033.00
2022-11-26T07:50:10.000Z,1033.00
2022-11-26T07:51:19.000Z,1033.03
2022-11-26T07:52:10.000Z,1032.98
2022-11-26T07:53:11.000Z,1033.03
2022-11-26T07:54:10.000Z,1032.99
2022-11-26T07:55:10.000Z,1032.98
2022-11-26T07:56:10.000Z,1032.98
2022-11-26T07:57:10.000Z,1032.99
2022-11-26T07:58:10.000Z,1032.99
2022-11-26T07:59:11.000Z,1032.99
2022-11-26T08:00:11.000Z,1033.01
2022-11-26T08:01:13.000Z,1033.00
2022-11-26T08:02:13.000Z,1033.01
2022-11-26T08:03:10.000Z,1033.00
2022-11-26T08:04:10.000Z,1033.01
2022-11-26T08:05:10.000Z,1033.01
2022-11-26T08:06:13.000Z,1033.03
2022-11-26T08:07:10.000Z,1033.07
2022-11-26T08:08:11.000Z,1033.07
2022-11-26T08:09:10.000Z,1033.10
2022-11-26T08:10:10.000Z,1033.08
2022-11-26T08:11:21.000Z,1033.11
2022-11-26T08:12:10.000Z,1033.11
2022-11-26T08:13:10.000Z,1033.09
2022-11-26T08:14:11.000Z,1033.11
2022-11-26T08:15:10.000Z,1033.12
2022-11-26T08:16:11.000Z,1033.12
2022-11-26T08:17:10.000Z,1033.14
2022-11-26T08:18:10.000Z,1033.14
2022-11-26T08:19:11.000Z,1033.13
2022-11-26T08:20:10.000Z,1033.16
2022-11-26T08:21:10.000Z,1033.15
2022-11-26T08:22:10.000Z,1033.15
2022-11-26T08:23:10.000Z,1033.14
2022-11-26T08:24:13.000Z,1033.15
2022-11-26T08:25:10.000Z,1033.11
2022-11-26T08:26:12.000Z,1033.15
2022-11-26T08:27:10.000Z,1033.16
2022-11-26T08:28:10.000Z,1033.12
2022-11-26T08:29:11.000Z,1033.08
2022-11-26T08:30:10.000Z,1033.09
2022-11-26T08:31:12.000Z,1033.08
2022-11-26T08:32:10.000Z,1033.07
2022-11-26T08:33:10.000Z,1033.12
2022-11-26T08:34:12.000Z,1033.11
2022-11-26T08:35:11.000Z,1033.07
2022-11-26T08:36:10.000Z,1033.12
2022-11-26T08:37:10.000Z,1033.12
2022-11-26T08:38:10.000Z,1033.13
2022-11-26T08:39:12.000Z,1033.14
2022-11-26T08:40:10.000Z,1033.14
2022-11-26T08:41:11.000Z,1033.18
2022-11-26T08:42:10.000Z,1033.16
2022-11-26T08:43:09.000Z,1033.16
2022-11-26T08:44:09.000Z,1033.18
2022-11-26T08:45:10.000Z,1033.19
2022-11-26T08:46:10.000Z,1033.17
2022-11-26T08:47:10.000Z,1033.18
2022-11-26T08:48:11.000Z,1033.19
2022-11-26T08:49:11.000Z,1033.19
2022-11-26T08:50:10.000Z,1033.21
2022-11-26T08:51:10.000Z,1033.18
2022-11-26T08:52:09.000Z,1033.21
2022-11-26T08:53:10.000Z,1033.17
2022-11-26T08:54:10.000Z,1033.23
2022-11-26T08:55:10.000Z,1033.20
2022-11-26T08:56:10.000Z,1033.22
2022-11-26T08:57:09.000Z,1033.23
2022-11-26T08:58:10.000Z,1033.20
2022-11-26T08:59:09.000Z,1033.22
2022-11-26T09:00:10.000Z,1033.19
2022-11-26T09:01:13.000Z,1033.17
2022-11-26T09:02:10.000Z,1033.18
2022-11-26T09:03:09.000Z,1033.19
2022-11-26T09:04:10.000Z,1033.22
2022-11-26T09:05:10.000Z,1033.20
2022-11-26T09:06:10.000Z,1033.21
2022-11-26T09:07:10.000Z,1033.24
2022-11-26T09:08:10.000Z,1033.22
2022-11-26T09:09:13.000Z,1033.23
2022-11-26T09:10:10.000Z,1033.24
2022-11-26T09:11:10.000Z,1033.28
2022-11-26T09:12:09.000Z,1033.30
2022-11-26T09:13:09.000Z,1033.35
2022-11-26T09:14:11.000Z,1033.32
2022-11-26T09:15:09.000Z,1033.30
2022-11-26T09:16:09.000Z,1033.31
2022-11-26T09:17:09.000Z,1033.33
2022-11-26T09:18:09.000Z,1033.34
2022-11-26T09:19:14.000Z,1033.32
2022-11-26T09:20:10.000Z,1033.32
2022-11-26T09:21:09.000Z,1033.32
2022-11-26T09:22:09.000Z,1033.33
2022-11-26T09:23:09.000Z,1033.38
2022-11-26T09:24:10.000Z,1033.37
2022-11-26T09:25:09.000Z,1033.38
2022-11-26T09:26:09.000Z,1033.41
2022-11-26T09:27:10.000Z,1033.47
2022-11-26T09:28:09.000Z,1033.49
2022-11-26T09:29:14.000Z,1033.52
2022-11-26T09:30:11.000Z,1033.53
2022-11-26T09:31:09.000Z,1033.50
2022-11-26T09:32:09.000Z,1033.51
2022-11-26T09:33:09.000Z,1033.52
2022-11-26T09:34:09.000Z,1033.52
2022-11-26T09:35:10.000Z,1033.52
2022-11-26T09:36:12.000Z,1033.52
2022-11-26T09:37:09.000Z,1033.54
2022-11-26T09:38:09.000Z,1033.55
2022-11-26T09:39:11.000Z,1033.59
2022-11-26T09:40:15.000Z,1033.60
2022-11-26T09:41:30.000Z,1033.59
2022-11-26T09:42:35.000Z,1033.57
2022-11-26T09:43:19.000Z,1033.56
2022-11-26T09:44:19.000Z,1033.59
2022-11-26T09:45:24.000Z,1033.63
2022-11-26T09:46:11.000Z,1033.60
2022-11-26T09:47:21.000Z,1033.61
2022-11-26T09:48:15.000Z,1033.61
2022-11-26T09:49:11.000Z,1033.59
2022-11-26T09:50:26.000Z,1033.61
2022-11-26T09:51:12.000Z,1033.64
2022-11-26T09:52:13.000Z,1033.62
2022-11-26T09:53:18.000Z,1033.63
2022-11-26T09:54:17.000Z,1033.65
2022-11-26T09:55:21.000Z,1033.69
2022-11-26T09:56:17.000Z,1033.65
2022-11-26T09:57:21.000Z,1033.71
2022-11-26T09:58:20.000Z,1033.71
2022-11-26T09:59:17.000Z,1033.64
2022-11-26T10:00:32.000Z,1033.66
2022-11-26T10:01:15.000Z,1033.70
2022-11-26T10:02:10.000Z,1033.68
2022-11-26T10:03:19.000Z,1033.69
2022-11-26T10:04:21.000Z,1033.67
2022-11-26T10:05:10.000Z,1033.72
2022-11-26T10:06:19.000Z,1033.74
2022-11-26T10:07:22.000Z,1033.71
2022-11-26T10:08:19.000Z,1033.68
2022-11-26T10:09:19.000Z,1033.69
2022-11-26T10:10:19.000Z,1033.69
2022-11-26T10:11:24.000Z,1033.66
2022-11-26T10:12:30.000Z,1033.64
2022-11-26T10:13:33.000Z,1033.65
2022-11-26T10:14:43.000Z,1033.65
2022-11-26T10:15:29.000Z,1033.68
2022-11-26T10:16:24.000Z,1033.66
2022-11-26T10:17:33.000Z,1033.69
2022-11-26T10:18:22.000Z,1033.66
2022-11-26T10:19:25.000Z,1033.66
2022-11-26T10:20:20.000Z,1033.69
2022-11-26T10:21:20.000Z,1033.68
2022-11-26T10:22:21.000Z,1033.69
2022-11-26T10:23:30.000Z,1033.70
2022-11-26T10:24:24.000Z,1033.74
2022-11-26T10:25:18.000Z,1033.70
2022-11-26T10:26:17.000Z,1033.71
2022-11-26T10:27:14.000Z,1033.75
2022-11-26T10:28:20.000Z,1033.73
2022-11-26T10:29:20.000Z,1033.71
2022-11-26T10:30:19.000Z,1033.75
2022-11-26T10:31:19.000Z,1033.73
2022-11-26T10:32:19.000Z,1033.72
2022-11-26T10:33:15.000Z,1033.73
2022-11-26T10:34:17.000Z,1033.74
2022-11-26T10:35:19.000Z,1033.74
2022-11-26T10:36:41.000Z,1033.73
2022-11-26T10:37:10.000Z,1033.76
2022-11-26T10:38:10.000Z,1033.72
2022-11-26T10:39:15.000Z,1033.75
2022-11-26T10:40:19.000Z,1033.72
2022-11-26T10:41:10.000Z,1033.75
2022-11-26T10:42:15.000Z,1033.77
2022-11-26T10:43:19.000Z,1033.74
2022-11-26T10:44:19.000Z,1033.70
2022-11-26T10:45:19.000Z,1033.69
2022-11-26T10:46:31.000Z,1033.66
2022-11-26T10:47:19.000Z,1033.62
2022-11-26T10:48:18.000Z,1033.59
2022-11-26T10:49:28.000Z,1033.59
2022-11-26T10:50:21.000Z,1033.57
2022-11-26T10:51:24.000Z,1033.63
2022-11-26T10:52:14.000Z,1033.62
2022-11-26T10:53:19.000Z,1033.61
2022-11-26T10:54:24.000Z,1033.64
2022-11-26T10:55:21.000Z,1033.62
2022-11-26T10:56:15.000Z,1033.61
2022-11-26T10:57:15.000Z,1033.61
2022-11-26T10:58:16.000Z,1033.62
2022-11-26T10:59:22.000Z,1033.62
2022-11-26T11:00:29.000Z,1033.65
2022-11-26T11:01:12.000Z,1033.67
2022-11-26T11:02:32.000Z,1033.66
2022-11-26T11:03:15.000Z,1033.68
2022-11-26T11:04:19.000Z,1033.67
2022-11-26T11:05:09.000Z,1033.67
2022-11-26T11:06:32.000Z,1033.65
2022-11-26T11:07:19.000Z,1033.65
2022-11-26T11:08:26.000Z,1033.60
2022-11-26T11:09:20.000Z,1033.59
2022-11-26T11:10:17.000Z,1033.59
2022-11-26T11:11:19.000Z,1033.59
2022-11-26T11:12:23.000Z,1033.55
2022-11-26T11:13:10.000Z,1033.54
2022-11-26T11:14:27.000Z,1033.55
2022-11-26T11:15:21.000Z,1033.51
2022-11-26T11:16:11.000Z,1033.53
2022-11-26T11:17:19.000Z,1033.48
2022-11-26T11:18:18.000Z,1033.52
2022-11-26T11:19:22.000Z,1033.46
2022-11-26T11:20:24.000Z,1033.45
2022-11-26T11:21:15.000Z,1033.45
2022-11-26T11:22:18.000Z,1033.49
2022-11-26T11:23:22.000Z,1033.48
2022-11-26T11:24:15.000Z,1033.49
2022-11-26T11:25:19.000Z,1033.44
2022-11-26T11:26:17.000Z,1033.49
2022-11-26T11:27:24.000Z,1033.46
2022-11-26T11:28:17.000Z,1033.47
2022-11-26T11:29:31.000Z,1033.49
2022-11-26T11:30:19.000Z,1033.51
2022-11-26T11:31:19.000Z,1033.48
2022-11-26T11:32:19.000Z,1033.44
2022-11-26T11:33:21.000Z,1033.45
2022-11-26T11:34:17.000Z,1033.40
2022-11-26T11:35:24.000Z,1033.40
2022-11-26T11:36:22.000Z,1033.35
2022-11-26T11:37:15.000Z,1033.41
2022-11-26T11:38:19.000Z,1033.41
2022-11-26T11:39:26.000Z,1033.37
2022-11-26T11:40:14.000Z,1033.41
2022-11-26T11:41:19.000Z,1033.44
2022-11-26T11:42:20.000Z,1033.43
2022-11-26T11:43:14.000Z,1033.44
2022-11-26T11:44:18.000Z,1033.46
2022-11-26T11:45:19.000Z,1033.42
2022-11-26T11:46:26.000Z,1033.37
2022-11-26T11:47:19.000Z,1033.35
2022-11-26T11:48:24.000Z,1033.35
2022-11-26T11:49:24.000Z,1033.27
2022-11-26T11:50:17.000Z,1033.29
2022-11-26T11:51:19.000Z,1033.29
2022-11-26T11:52:19.000Z,1033.28
2022-11-26T11:53:19.000Z,1033.26
2022-11-26T11:54:32.000Z,1033.24
2022-11-26T11:55:19.000Z,1033.22
2022-11-26T11:56:20.000Z,1033.16
2022-11-26T11:57:33.000Z,1033.14
2022-11-26T11:58:29.000Z,1033.15
2022-11-26T11:59:21.000Z,1033.17
2022-11-26T12:00:31.000Z,1033.15
2022-11-26T12:01:21.000Z,1033.17
2022-11-26T12:02:32.000Z,1033.17
2022-11-26T12:03:33.000Z,1033.19
2022-11-26T12:04:29.000Z,1033.18
2022-11-26T12:05:27.000Z,1033.20